Terminal Aerodrome Forecast
Issued by NWS Charleston, WV

Current Version | Previous Version | Graphics & Text | Print | Product List | Glossary On
Versions: 1 2 3 4 5 6 7 8 9 10 11 12 13 14 15 16 17 18 19 20 21 22 23 24 25 26
000
FTUS41 KRLX 261700
TAFBKW
TAF
KBKW 261738Z 2618/2718 27004KT 6SM -RA OVC004
     FM262000 30009KT 2SM -SN BR OVC005
     FM270300 31009KT 4SM -SN OVC006
     FM270500 31009KT 6SM -SN OVC007
     FM270900 31009KT P6SM OVC005=

USA.gov is the U.S. government's official web portal to all federal, state and local government web resources and services.